createdAt,value
2022-10-19T00:01:31.210Z,1.95
2022-10-19T00:03:58.748Z,1.88
2022-10-19T00:06:28.251Z,1.85
2022-10-19T00:08:57.039Z,1.65
2022-10-19T00:11:24.134Z,1.50
2022-10-19T00:13:51.191Z,1.58
2022-10-19T00:16:18.466Z,1.80
2022-10-19T00:18:46.092Z,1.88
2022-10-19T00:21:15.862Z,1.80
2022-10-19T00:23:42.672Z,1.73
2022-10-19T00:26:09.637Z,2.08
2022-10-19T00:28:36.375Z,1.80
2022-10-19T00:31:08.762Z,1.88
2022-10-19T00:33:35.613Z,2.47
2022-10-19T00:36:02.717Z,2.30
2022-10-19T00:38:29.076Z,2.25
2022-10-19T00:40:55.730Z,2.20
2022-10-19T00:43:28.853Z,2.25
2022-10-19T00:45:55.213Z,2.08
2022-10-19T00:48:27.944Z,2.30
2022-10-19T00:50:58.300Z,2.20
2022-10-19T00:53:27.349Z,2.50
2022-10-19T00:55:54.312Z,2.25
2022-10-19T00:58:20.789Z,2.40
2022-10-19T01:00:47.286Z,2.47
2022-10-19T01:03:14.380Z,2.08
2022-10-19T01:05:41.179Z,2.90
2022-10-19T01:08:09.940Z,2.50
2022-10-19T01:11:03.415Z,2.95
2022-10-19T01:13:55.982Z,2.25
2022-10-19T01:16:37.994Z,2.83
2022-10-19T01:19:42.026Z,2.50
2022-10-19T01:22:36.467Z,2.78
2022-10-19T01:25:20.744Z,2.65
2022-10-19T01:28:04.319Z,2.53
2022-10-19T01:30:46.983Z,2.30
2022-10-19T01:33:28.326Z,2.40
2022-10-19T01:36:13.169Z,2.53
2022-10-19T01:39:01.452Z,2.70
2022-10-19T01:41:35.374Z,2.83
2022-10-19T01:44:13.766Z,2.50
2022-10-19T01:46:43.916Z,2.17
2022-10-19T01:49:16.162Z,2.20
2022-10-19T01:51:49.786Z,2.10
2022-10-19T01:54:18.640Z,2.17
2022-10-19T01:56:48.330Z,1.70
2022-10-19T01:59:18.398Z,1.90
2022-10-19T02:01:47.312Z,1.83
2022-10-19T02:04:18.559Z,1.77
2022-10-19T02:06:44.969Z,1.80
2022-10-19T02:09:17.971Z,1.85
2022-10-19T02:11:49.630Z,1.55
2022-10-19T02:14:22.274Z,2.20
2022-10-19T02:16:59.211Z,1.98
2022-10-19T02:19:25.691Z,1.95
2022-10-19T02:21:52.429Z,1.92
2022-10-19T02:24:18.820Z,2.28
2022-10-19T02:26:45.902Z,2.70
2022-10-19T02:29:15.014Z,2.13
2022-10-19T02:31:41.691Z,2.40
2022-10-19T02:34:08.294Z,2.03
2022-10-19T02:36:34.840Z,2.25
2022-10-19T02:39:01.248Z,2.05
2022-10-19T02:41:33.723Z,2.28
2022-10-19T02:44:17.878Z,2.20
2022-10-19T02:46:48.251Z,2.08
2022-10-19T02:49:15.766Z,1.77
2022-10-19T02:52:04.336Z,2.25
2022-10-19T02:54:30.865Z,2.13
2022-10-19T02:56:57.415Z,2.05
2022-10-19T02:59:24.672Z,2.28
2022-10-19T03:01:51.394Z,2.33
2022-10-19T03:04:18.547Z,2.20
2022-10-19T03:06:44.924Z,2.50
2022-10-19T03:09:11.339Z,1.70
2022-10-19T03:11:37.880Z,1.80
2022-10-19T03:14:04.226Z,1.67
2022-10-19T03:16:30.551Z,2.03
2022-10-19T03:18:56.947Z,2.70
2022-10-19T03:21:23.330Z,2.55
2022-10-19T03:23:49.681Z,3.00
2022-10-19T03:26:17.846Z,2.83
2022-10-19T03:28:44.248Z,2.30
2022-10-19T03:31:10.684Z,2.30
2022-10-19T03:33:37.017Z,2.30
2022-10-19T03:36:23.303Z,2.58
2022-10-19T03:41:17.135Z,2.28
2022-10-19T03:43:43.530Z,2.47
2022-10-19T03:46:09.859Z,2.53
2022-10-19T03:48:36.355Z,2.60
2022-10-19T03:51:09.273Z,2.67
2022-10-19T03:53:36.432Z,2.45
2022-10-19T03:56:05.433Z,2.80
2022-10-19T03:58:33.446Z,2.10
2022-10-19T04:01:00.512Z,2.97
2022-10-19T04:03:26.950Z,2.40
2022-10-19T04:06:02.585Z,2.50
2022-10-19T04:08:29.119Z,2.60
2022-10-19T04:11:08.535Z,2.80
2022-10-19T04:13:35.655Z,2.53
2022-10-19T04:16:02.293Z,2.80
2022-10-19T04:18:28.718Z,2.72
2022-10-19T04:21:00.280Z,2.63
2022-10-19T04:23:29.179Z,2.33
2022-10-19T04:26:03.070Z,2.40
2022-10-19T04:28:30.107Z,2.78
2022-10-19T04:30:56.536Z,2.53
2022-10-19T04:33:23.603Z,2.40
2022-10-19T04:35:49.948Z,2.70
2022-10-19T04:38:16.282Z,3.00
2022-10-19T04:40:42.812Z,2.60
2022-10-19T04:43:09.252Z,2.83
2022-10-19T04:45:35.921Z,2.92
2022-10-19T04:48:02.355Z,2.40
2022-10-19T04:50:28.806Z,2.95
2022-10-19T04:52:55.153Z,3.28
2022-10-19T04:55:21.798Z,2.80
2022-10-19T04:57:48.370Z,2.80
2022-10-19T05:00:15.192Z,2.22
2022-10-19T05:02:45.962Z,2.58
2022-10-19T05:05:13.364Z,2.78
2022-10-19T05:07:40.173Z,2.88
2022-10-19T05:10:08.391Z,2.80
2022-10-19T05:12:35.676Z,3.28
2022-10-19T05:15:02.323Z,2.58
2022-10-19T05:17:32.539Z,2.53
2022-10-19T05:19:59.174Z,2.97
2022-10-19T05:22:25.501Z,3.67
2022-10-19T05:24:54.547Z,3.17
2022-10-19T05:27:23.871Z,3.15
2022-10-19T05:29:50.219Z,2.90
2022-10-19T05:32:16.702Z,2.58
2022-10-19T05:34:43.207Z,2.55
2022-10-19T05:37:09.540Z,2.70
2022-10-19T05:39:35.922Z,2.53
2022-10-19T05:42:02.311Z,2.75
2022-10-19T05:44:28.765Z,2.28
2022-10-19T05:46:55.159Z,2.83
2022-10-19T05:49:22.343Z,2.72
2022-10-19T05:51:49.790Z,2.20
2022-10-19T05:54:17.146Z,2.55
2022-10-19T05:56:44.602Z,2.20
2022-10-19T05:59:15.053Z,2.13
2022-10-19T06:01:41.480Z,2.28
2022-10-19T06:04:07.937Z,2.63
2022-10-19T06:06:34.793Z,2.30
2022-10-19T06:09:01.198Z,2.67
2022-10-19T06:11:34.951Z,2.70
2022-10-19T06:14:04.091Z,2.65
2022-10-19T06:16:32.190Z,2.42
2022-10-19T06:18:59.680Z,2.15
2022-10-19T06:21:29.026Z,2.85
2022-10-19T06:23:57.807Z,2.65
2022-10-19T06:26:25.264Z,2.65
2022-10-19T06:28:54.358Z,3.00
2022-10-19T06:31:20.681Z,2.83
2022-10-19T06:33:49.388Z,3.08
2022-10-19T06:36:19.409Z,2.90
2022-10-19T06:38:46.364Z,3.05
2022-10-19T06:41:13.002Z,3.03
2022-10-19T06:43:39.420Z,2.70
2022-10-19T06:46:10.894Z,2.70
2022-10-19T06:48:37.429Z,3.20
2022-10-19T06:51:07.406Z,3.20
2022-10-19T06:53:35.612Z,3.20
2022-10-19T06:56:04.585Z,3.47
2022-10-19T06:58:31.097Z,3.17
2022-10-19T07:00:59.266Z,4.28
2022-10-19T07:03:27.267Z,3.17
2022-10-19T07:06:00.859Z,3.13
2022-10-19T07:08:29.647Z,3.25
2022-10-19T07:10:58.309Z,2.95
2022-10-19T07:13:25.942Z,3.22
2022-10-19T07:15:58.814Z,3.03
2022-10-19T07:18:26.483Z,2.72
2022-10-19T07:21:01.240Z,3.00
2022-10-19T07:23:29.310Z,3.05
2022-10-19T07:26:00.966Z,3.25
2022-10-19T07:28:29.286Z,2.65
2022-10-19T07:30:56.138Z,3.10
2022-10-19T07:33:22.603Z,2.65
2022-10-19T07:35:49.098Z,2.72
2022-10-19T07:38:15.487Z,3.10
2022-10-19T07:40:44.875Z,3.22
2022-10-19T07:43:13.715Z,3.00
2022-10-19T07:45:40.096Z,2.78
2022-10-19T07:48:06.593Z,2.58
2022-10-19T07:50:32.985Z,3.35
2022-10-19T07:52:59.353Z,3.72
2022-10-19T07:55:25.674Z,3.10
2022-10-19T07:57:52.132Z,2.92
2022-10-19T08:00:18.574Z,3.35
2022-10-19T08:02:59.649Z,3.22
2022-10-19T08:08:01.175Z,2.90
2022-10-19T08:10:27.742Z,3.17
2022-10-19T08:12:54.108Z,2.95
2022-10-19T08:15:20.450Z,2.55
2022-10-19T08:17:47.003Z,2.42
2022-10-19T08:20:13.404Z,2.00
2022-10-19T08:22:46.761Z,2.10
2022-10-19T08:25:13.124Z,1.90
2022-10-19T08:27:39.468Z,2.00
2022-10-19T08:30:06.195Z,2.05
2022-10-19T08:32:33.006Z,1.90
2022-10-19T08:34:59.568Z,2.10
2022-10-19T08:37:43.816Z,1.60
2022-10-19T08:40:25.833Z,1.85
2022-10-19T08:43:01.707Z,2.20
2022-10-19T08:48:20.472Z,1.85
2022-10-19T08:50:48.320Z,2.00
2022-10-19T08:53:24.695Z,2.20
2022-10-19T08:55:54.413Z,2.47
2022-10-19T08:58:46.753Z,2.00
2022-10-19T09:01:21.365Z,2.05
2022-10-19T09:03:59.717Z,2.22
2022-10-19T09:06:45.429Z,2.25
2022-10-19T09:09:15.493Z,2.33
2022-10-19T09:11:47.170Z,2.28
2022-10-19T09:14:20.722Z,2.22
2022-10-19T09:16:47.206Z,2.25
2022-10-19T09:19:26.203Z,2.30
2022-10-19T09:22:00.314Z,2.20
2022-10-19T09:24:45.931Z,2.63
2022-10-19T09:27:33.319Z,2.15
2022-10-19T09:30:05.721Z,2.45
2022-10-19T09:32:37.907Z,2.50
2022-10-19T09:35:36.110Z,2.35
2022-10-19T09:38:05.862Z,2.45
2022-10-19T09:40:33.663Z,2.50
2022-10-19T09:43:08.566Z,2.47
2022-10-19T09:45:37.975Z,2.30
2022-10-19T09:48:16.565Z,2.55
2022-10-19T09:50:44.668Z,2.05
2022-10-19T09:53:20.189Z,2.22
2022-10-19T09:56:07.807Z,2.20
2022-10-19T09:58:47.279Z,2.00
2022-10-19T10:01:41.704Z,2.55
2022-10-19T10:04:17.832Z,1.70
2022-10-19T10:06:47.931Z,1.80
2022-10-19T10:09:17.437Z,2.00
2022-10-19T10:11:48.122Z,1.83
2022-10-19T10:14:21.558Z,1.52
2022-10-19T10:16:48.218Z,1.77
2022-10-19T10:19:17.001Z,1.67
2022-10-19T10:21:54.463Z,1.90
2022-10-19T10:24:25.902Z,2.38
2022-10-19T10:26:53.783Z,1.98
2022-10-19T10:29:25.163Z,1.52
2022-10-19T10:32:00.349Z,1.83
2022-10-19T10:34:50.185Z,1.73
2022-10-19T10:37:21.763Z,1.35
2022-10-19T10:39:52.810Z,1.48
2022-10-19T10:42:26.999Z,1.40
2022-10-19T10:44:56.236Z,1.58
2022-10-19T10:47:23.105Z,1.50
2022-10-19T10:50:02.890Z,1.75
2022-10-19T10:52:33.475Z,1.75
2022-10-19T10:55:10.875Z,1.73
2022-10-19T10:57:46.642Z,1.70
2022-10-19T11:00:21.547Z,1.67
2022-10-19T11:02:47.846Z,2.08
2022-10-19T11:05:20.342Z,1.73
2022-10-19T11:07:53.042Z,2.25
2022-10-19T11:10:35.228Z,2.58
2022-10-19T11:13:28.751Z,2.70
2022-10-19T11:16:11.180Z,2.50
2022-10-19T11:18:49.970Z,2.65
2022-10-19T11:21:42.482Z,2.50
2022-10-19T11:24:35.417Z,2.83
2022-10-19T11:27:15.561Z,1.98
2022-10-19T11:30:10.842Z,2.15
2022-10-19T11:33:01.611Z,1.85
2022-10-19T11:35:54.446Z,2.20
2022-10-19T11:38:35.075Z,2.08
2022-10-19T11:41:26.371Z,1.88
2022-10-19T11:44:14.519Z,1.90
2022-10-19T11:46:59.781Z,1.85
2022-10-19T11:49:38.383Z,2.15
2022-10-19T11:52:16.051Z,1.80
2022-10-19T11:55:06.418Z,1.98
2022-10-19T11:57:43.483Z,1.75
2022-10-19T12:00:21.178Z,2.05
2022-10-19T12:03:08.976Z,1.98
2022-10-19T12:05:56.096Z,1.85
2022-10-19T12:08:51.192Z,2.13
2022-10-19T12:11:51.539Z,1.73
2022-10-19T12:14:24.211Z,2.03
2022-10-19T12:16:55.279Z,1.85
2022-10-19T12:19:36.986Z,2.00
2022-10-19T12:22:06.915Z,2.03
2022-10-19T12:24:34.342Z,1.75
2022-10-19T12:27:01.907Z,2.03
2022-10-19T12:29:37.462Z,1.75
2022-10-19T12:32:05.881Z,2.00
2022-10-19T12:34:52.521Z,2.33
2022-10-19T12:37:25.058Z,1.65
2022-10-19T12:40:38.203Z,2.00
2022-10-19T12:43:17.143Z,1.63
2022-10-19T12:45:51.618Z,1.77
2022-10-19T12:48:20.649Z,1.80
2022-10-19T12:50:50.117Z,1.77
2022-10-19T12:56:05.367Z,1.50
2022-10-19T12:58:47.682Z,1.90
2022-10-19T13:01:26.761Z,1.90
2022-10-19T13:04:07.534Z,1.60
2022-10-19T13:06:36.787Z,1.60
2022-10-19T13:09:06.522Z,1.60
2022-10-19T13:14:10.888Z,1.13
2022-10-19T13:16:37.266Z,1.48
2022-10-19T13:19:12.966Z,1.38
2022-10-19T13:22:01.395Z,1.40
2022-10-19T13:24:34.752Z,1.60
2022-10-19T13:27:04.104Z,1.50
2022-10-19T13:29:39.728Z,1.50
2022-10-19T13:32:40.445Z,1.48
2022-10-19T13:35:32.718Z,1.30
2022-10-19T13:38:17.520Z,1.40
2022-10-19T13:40:49.742Z,1.48
2022-10-19T13:43:28.982Z,1.17
2022-10-19T13:46:03.449Z,1.40
2022-10-19T13:48:37.339Z,1.25
2022-10-19T13:51:20.062Z,1.30
2022-10-19T13:54:20.548Z,1.10
2022-10-19T13:57:16.282Z,1.20
2022-10-19T14:00:13.621Z,1.30
2022-10-19T14:03:13.232Z,1.60
2022-10-19T14:05:53.592Z,1.27
2022-10-19T14:08:41.451Z,1.42
2022-10-19T14:11:17.853Z,1.30
2022-10-19T14:13:44.547Z,1.42
2022-10-19T14:16:21.768Z,1.30
2022-10-19T14:18:55.909Z,1.67
2022-10-19T14:21:41.172Z,1.13
2022-10-19T14:24:38.834Z,1.23
2022-10-19T14:27:07.653Z,1.25
2022-10-19T14:29:44.315Z,1.80
2022-10-19T14:32:12.116Z,1.40
2022-10-19T14:34:43.579Z,1.50
2022-10-19T14:37:22.160Z,1.35
2022-10-19T14:39:59.808Z,1.30
2022-10-19T14:42:39.703Z,1.02
2022-10-19T14:45:12.149Z,1.25
2022-10-19T14:47:51.310Z,1.05
2022-10-19T14:50:18.595Z,1.42
2022-10-19T14:52:45.690Z,1.30
2022-10-19T14:55:17.985Z,1.40
2022-10-19T14:57:47.540Z,1.25
2022-10-19T15:00:22.645Z,1.38
2022-10-19T15:03:09.533Z,1.40
2022-10-19T15:05:51.521Z,1.38
2022-10-19T15:08:27.827Z,1.10
2022-10-19T15:10:54.223Z,1.35
2022-10-19T15:13:28.498Z,1.42
2022-10-19T15:15:55.745Z,1.80
2022-10-19T15:18:47.805Z,1.33
2022-10-19T15:21:17.753Z,1.70
2022-10-19T15:23:51.873Z,1.50
2022-10-19T15:26:18.224Z,1.45
2022-10-19T15:28:45.116Z,2.08
2022-10-19T15:31:30.077Z,1.42
2022-10-19T15:34:01.911Z,1.30
2022-10-19T15:36:30.340Z,1.52
2022-10-19T15:39:18.482Z,1.35
2022-10-19T15:41:51.398Z,1.60
2022-10-19T15:44:53.392Z,1.90
2022-10-19T15:47:23.172Z,2.03
2022-10-19T15:49:55.763Z,1.83
2022-10-19T15:52:23.964Z,1.80
2022-10-19T15:54:52.657Z,1.45
2022-10-19T15:57:32.790Z,1.60
2022-10-19T16:00:06.704Z,2.10
2022-10-19T16:02:33.014Z,2.03
2022-10-19T16:04:59.402Z,1.75
2022-10-19T16:07:29.122Z,1.98
2022-10-19T16:09:55.911Z,1.60
2022-10-19T16:12:23.279Z,1.60
2022-10-19T16:14:49.669Z,1.65
2022-10-19T16:17:16.312Z,1.80
2022-10-19T16:19:44.017Z,1.52
2022-10-19T16:22:11.662Z,1.67
2022-10-19T16:24:38.147Z,1.60
2022-10-19T16:27:05.602Z,1.88
2022-10-19T16:29:32.080Z,1.77
2022-10-19T16:31:58.987Z,1.85
2022-10-19T16:34:25.385Z,1.70
2022-10-19T16:36:51.887Z,1.65
2022-10-19T16:39:18.593Z,1.88
2022-10-19T16:41:44.983Z,1.70
2022-10-19T16:44:12.562Z,2.15
2022-10-19T16:46:39.276Z,1.60
2022-10-19T16:49:05.691Z,1.83
2022-10-19T16:51:41.834Z,1.50
2022-10-19T16:54:10.720Z,1.63
2022-10-19T16:56:47.774Z,2.15
2022-10-19T16:59:16.686Z,2.03
2022-10-19T17:01:44.414Z,1.80
2022-10-19T17:04:12.103Z,2.08
2022-10-19T17:06:38.698Z,1.88
2022-10-19T17:11:51.953Z,2.35
2022-10-19T17:14:18.380Z,1.98
2022-10-19T17:16:45.714Z,1.92
2022-10-19T17:19:12.097Z,2.10
2022-10-19T17:21:39.404Z,1.67
2022-10-19T17:24:08.759Z,2.00
2022-10-19T17:26:38.010Z,1.75
2022-10-19T17:29:06.074Z,2.35
2022-10-19T17:31:32.854Z,2.10
2022-10-19T17:34:00.616Z,2.00
2022-10-19T17:36:29.356Z,2.63
2022-10-19T17:38:58.489Z,2.25
2022-10-19T17:41:26.526Z,2.40
2022-10-19T17:43:53.488Z,2.72
2022-10-19T17:46:26.023Z,2.08
2022-10-19T17:48:52.355Z,2.55
2022-10-19T17:51:21.502Z,2.30
2022-10-19T17:53:50.468Z,2.10
2022-10-19T17:56:19.699Z,1.80
2022-10-19T17:58:47.069Z,2.00
2022-10-19T18:01:14.863Z,2.05
2022-10-19T18:03:41.706Z,2.60
2022-10-19T18:06:14.626Z,2.25
2022-10-19T18:08:43.616Z,2.25
2022-10-19T18:11:11.911Z,2.28
2022-10-19T18:13:39.593Z,2.25
2022-10-19T18:16:12.054Z,2.22
2022-10-19T18:18:40.666Z,2.20
2022-10-19T18:21:11.402Z,2.40
2022-10-19T18:23:37.979Z,2.20
2022-10-19T18:26:07.445Z,2.63
2022-10-19T18:28:34.041Z,2.13
2022-10-19T18:31:11.678Z,2.60
2022-10-19T18:33:38.827Z,3.03
2022-10-19T18:36:06.657Z,2.33
2022-10-19T18:38:33.306Z,2.42
2022-10-19T18:41:03.711Z,2.90
2022-10-19T18:43:30.429Z,2.67
2022-10-19T18:45:58.660Z,3.65
2022-10-19T18:48:27.323Z,4.28
2022-10-19T18:50:53.903Z,3.15
2022-10-19T18:53:20.961Z,3.50
2022-10-19T18:55:59.957Z,3.00
2022-10-19T18:58:27.074Z,3.15
2022-10-19T19:01:02.668Z,3.22
2022-10-19T19:03:29.014Z,2.95
2022-10-19T19:05:59.278Z,2.72
2022-10-19T19:08:25.827Z,2.92
2022-10-19T19:10:52.260Z,3.40
2022-10-19T19:13:18.610Z,2.92
2022-10-19T19:15:44.995Z,3.35
2022-10-19T19:18:11.422Z,2.92
2022-10-19T19:20:40.335Z,2.83
2022-10-19T19:23:06.879Z,3.38
2022-10-19T19:25:33.225Z,3.10
2022-10-19T19:27:59.659Z,3.40
2022-10-19T19:30:27.771Z,3.10
2022-10-19T19:32:54.130Z,2.83
2022-10-19T19:35:20.469Z,3.08
2022-10-19T19:37:46.801Z,3.50
2022-10-19T19:40:13.156Z,3.20
2022-10-19T19:42:39.595Z,3.78
2022-10-19T19:45:06.413Z,3.17
2022-10-19T19:47:33.007Z,3.20
2022-10-19T19:49:59.680Z,3.25
2022-10-19T19:52:26.023Z,3.15
2022-10-19T19:54:52.423Z,3.63
2022-10-19T19:57:18.862Z,3.33
2022-10-19T19:59:45.239Z,3.55
2022-10-19T20:02:11.661Z,3.33
2022-10-19T20:04:38.051Z,3.30
2022-10-19T20:07:05.012Z,3.67
2022-10-19T20:09:31.434Z,3.42
2022-10-19T20:11:57.836Z,3.05
2022-10-19T20:14:24.318Z,3.35
2022-10-19T20:16:50.708Z,2.92
2022-10-19T20:19:17.072Z,3.05
2022-10-19T20:21:43.438Z,2.65
2022-10-19T20:24:10.461Z,3.00
2022-10-19T20:26:37.405Z,2.55
2022-10-19T20:29:04.927Z,2.80
2022-10-19T20:31:33.337Z,2.90
2022-10-19T20:33:59.813Z,2.58
2022-10-19T20:36:26.556Z,2.55
2022-10-19T20:38:58.182Z,3.17
2022-10-19T20:41:26.903Z,2.70
2022-10-19T20:43:54.176Z,2.55
2022-10-19T20:46:29.137Z,2.35
2022-10-19T20:48:57.986Z,2.83
2022-10-19T20:51:30.996Z,2.72
2022-10-19T20:53:59.955Z,2.50
2022-10-19T20:56:29.473Z,2.72
2022-10-19T20:59:00.532Z,2.65
2022-10-19T21:01:29.010Z,2.30
2022-10-19T21:03:59.030Z,2.50
2022-10-19T21:06:27.138Z,2.63
2022-10-19T21:08:53.596Z,2.20
2022-10-19T21:11:24.213Z,2.67
2022-10-19T21:13:56.257Z,2.20
2022-10-19T21:16:27.386Z,2.67
2022-10-19T21:18:54.407Z,2.20
2022-10-19T21:21:27.278Z,2.42
2022-10-19T21:23:59.386Z,2.10
2022-10-19T21:26:29.278Z,2.63
2022-10-19T21:28:56.122Z,2.30
2022-10-19T21:31:23.871Z,2.25
2022-10-19T21:33:51.649Z,2.50
2022-10-19T21:36:19.300Z,2.33
2022-10-19T21:38:45.631Z,2.38
2022-10-19T21:41:26.169Z,2.33
2022-10-19T21:43:53.377Z,2.40
2022-10-19T21:46:21.655Z,2.03
2022-10-19T21:48:48.921Z,2.45
2022-10-19T21:51:37.354Z,1.90
2022-10-19T21:54:06.104Z,2.28
2022-10-19T21:56:33.909Z,2.25
2022-10-19T21:59:00.496Z,2.00
2022-10-19T22:01:29.471Z,2.10
2022-10-19T22:03:57.746Z,2.25
2022-10-19T22:06:25.386Z,1.90
2022-10-19T22:08:52.020Z,2.13
2022-10-19T22:11:18.510Z,1.98
2022-10-19T22:13:44.880Z,1.88
2022-10-19T22:16:14.411Z,1.60
2022-10-19T22:18:41.171Z,2.15
2022-10-19T22:21:10.633Z,1.90
2022-10-19T22:23:37.607Z,1.80
2022-10-19T22:26:14.875Z,2.03
2022-10-19T22:28:41.553Z,1.85
2022-10-19T22:31:08.511Z,1.95
2022-10-19T22:33:35.516Z,1.90
2022-10-19T22:36:04.376Z,1.88
2022-10-19T22:38:30.735Z,2.20
2022-10-19T22:40:57.129Z,2.05
2022-10-19T22:43:23.535Z,2.28
2022-10-19T22:45:50.276Z,2.00
2022-10-19T22:48:17.812Z,2.33
2022-10-19T22:50:44.705Z,2.22
2022-10-19T22:53:11.727Z,2.15
2022-10-19T22:55:38.132Z,1.83
2022-10-19T22:58:05.810Z,2.08
2022-10-19T23:00:32.419Z,2.17
2022-10-19T23:02:58.898Z,2.13
2022-10-19T23:05:25.244Z,2.45
2022-10-19T23:07:51.591Z,2.25
2022-10-19T23:10:18.134Z,2.28
2022-10-19T23:12:48.839Z,2.05
2022-10-19T23:15:15.216Z,2.05
2022-10-19T23:17:41.551Z,2.40
2022-10-19T23:20:08.416Z,2.20
2022-10-19T23:22:34.751Z,2.00
2022-10-19T23:25:01.093Z,2.20
2022-10-19T23:27:27.462Z,2.15
2022-10-19T23:29:53.817Z,2.60
2022-10-19T23:32:20.395Z,2.45
2022-10-19T23:34:48.420Z,2.88
2022-10-19T23:37:15.031Z,2.22
2022-10-19T23:39:41.599Z,2.75
2022-10-19T23:42:07.939Z,2.65
2022-10-19T23:44:34.320Z,2.75
2022-10-19T23:47:00.653Z,2.47
2022-10-19T23:49:27.049Z,2.50
2022-10-19T23:51:53.590Z,2.67
2022-10-19T23:54:19.901Z,2.70
2022-10-19T23:56:46.254Z,2.53
2022-10-19T23:59:12.608Z,2.60
